Time;durP1;ratioP1;P1;durP2;ratioP2;P2;SDS_P1;SDS_P2;PMS_P1;PMS_P2;Temp;Humidity;BMP_temperature;BMP_pressure;BME280_temperature;BME280_humidity;BME280_pressure;Samples;Min_cycle;Max_cycle;Signal;HPM_P1;HPM_P2
2022/07/12 00:02:08;;;;;;;3.73;1.70;;;12.70;94.50;;;;;;5009703;28;20491;-54
2022/07/12 00:04:35;;;;;;;4.90;1.80;;;12.60;93.30;;;;;;5011037;28;20489;-53
2022/07/12 00:07:01;;;;;;;2.57;1.60;;;12.60;88.30;;;;;;5013414;28;20514;-53
2022/07/12 00:09:29;;;;;;;3.20;1.53;;;12.60;81.60;;;;;;5012128;28;20520;-53
2022/07/12 00:11:57;;;;;;;3.23;1.53;;;12.60;82.60;;;;;;5011046;28;21046;-54
2022/07/12 00:14:23;;;;;;;4.77;1.50;;;12.60;91.30;;;;;;5015486;28;20783;-52
2022/07/12 00:16:51;;;;;;;1.97;1.50;;;12.40;92.50;;;;;;5013525;28;20480;-53
2022/07/12 00:19:17;;;;;;;1.50;1.40;;;12.50;83.60;;;;;;5012190;28;20898;-52
2022/07/12 00:21:44;;;;;;;1.50;1.40;;;12.50;81.00;;;;;;5014465;28;20526;-53
2022/07/12 00:24:11;;;;;;;1.50;1.40;;;12.40;80.10;;;;;;5012881;28;20498;-53
2022/07/12 00:26:39;;;;;;;2.47;1.47;;;12.30;69.50;;;;;;5019598;28;20515;-52
2022/07/12 00:29:06;;;;;;;2.30;1.10;;;12.30;74.10;;;;;;5011421;28;20511;-56
2022/07/12 00:31:33;;;;;;;1.63;1.53;;;12.30;71.00;;;;;;5012415;28;20471;-52
2022/07/12 00:34:00;;;;;;;1.67;1.40;;;12.30;76.50;;;;;;5014975;28;20549;-52
2022/07/12 00:36:26;;;;;;;5.40;1.70;;;12.30;78.10;;;;;;5022815;28;20964;-53
2022/07/12 00:38:53;;;;;;;3.07;1.30;;;12.30;72.60;;;;;;5015052;28;20615;-52
2022/07/12 00:41:20;;;;;;;1.50;1.40;;;12.30;73.40;;;;;;5015184;28;21056;-53
2022/07/12 00:43:48;;;;;;;2.40;1.50;;;12.20;71.70;;;;;;5011965;28;20464;-53
2022/07/12 00:46:23;;;;;;;1.53;1.40;;;12.20;71.10;;;;;;5015507;28;20467;-54
2022/07/12 00:48:50;;;;;;;3.90;1.53;;;12.20;68.80;;;;;;5009065;28;20584;-52
2022/07/12 00:51:18;;;;;;;1.47;1.30;;;12.20;62.60;;;;;;5019146;28;20475;-53
2022/07/12 00:53:45;;;;;;;1.87;1.40;;;12.20;60.90;;;;;;5012462;28;20462;-53
2022/07/12 00:56:13;;;;;;;2.10;1.37;;;12.10;59.30;;;;;;5020047;28;21238;-53
2022/07/12 00:58:41;;;;;;;2.27;1.63;;;12.10;61.80;;;;;;5017763;28;20510;-53
2022/07/12 01:01:10;;;;;;;1.43;1.23;;;12.00;66.80;;;;;;5002017;28;20448;-52
2022/07/12 01:03:37;;;;;;;1.77;1.30;;;12.00;68.70;;;;;;5007530;28;20466;-54
2022/07/12 01:06:04;;;;;;;4.73;1.53;;;12.00;70.90;;;;;;5010405;28;20502;-53
2022/07/12 01:08:31;;;;;;;2.50;1.27;;;12.00;63.80;;;;;;5010383;28;20479;-53
2022/07/12 01:10:58;;;;;;;1.67;1.50;;;11.90;71.10;;;;;;5010934;28;20523;-53
2022/07/12 01:13:24;;;;;;;2.30;1.63;;;12.00;57.30;;;;;;5008704;28;20925;-53
2022/07/12 01:15:53;;;;;;;3.70;1.63;;;11.90;68.10;;;;;;5003844;28;20498;-52
2022/07/12 01:18:21;;;;;;;1.60;1.50;;;11.90;62.10;;;;;;5016461;28;20532;-52
2022/07/12 01:20:48;;;;;;;4.00;1.30;;;11.90;71.50;;;;;;5010910;28;21019;-54
2022/07/12 01:23:16;;;;;;;5.13;1.33;;;11.80;65.80;;;;;;5026695;28;20495;-53
2022/07/12 01:25:43;;;;;;;3.83;1.83;;;11.70;48.30;;;;;;5017701;28;20550;-54
2022/07/12 01:28:10;;;;;;;1.70;1.60;;;11.70;51.20;;;;;;5005174;28;20618;-52
2022/07/12 01:30:37;;;;;;;4.30;1.90;;;11.60;48.10;;;;;;5010655;28;20515;-52
2022/07/12 01:33:05;;;;;;;2.10;1.50;;;11.70;50.50;;;;;;5007292;28;21048;-52
2022/07/12 01:35:33;;;;;;;1.83;1.73;;;11.60;55.70;;;;;;5007189;28;20522;-52
2022/07/12 01:38:00;;;;;;;1.20;1.20;;;11.60;50.20;;;;;;5013249;28;20513;-53
2022/07/12 01:40:28;;;;;;;2.40;1.40;;;11.70;53.60;;;;;;5008468;28;20460;-54
2022/07/12 01:42:55;;;;;;;1.27;1.13;;;11.60;61.50;;;;;;5016502;28;20976;-53
2022/07/12 01:45:21;;;;;;;3.53;1.50;;;11.70;53.90;;;;;;5008959;28;20514;-53
2022/07/12 01:47:48;;;;;;;2.30;1.80;;;11.60;54.00;;;;;;5013540;28;20927;-53
2022/07/12 01:50:16;;;;;;;2.77;1.30;;;11.60;51.10;;;;;;5002483;28;20483;-53
2022/07/12 01:52:42;;;;;;;1.70;1.60;;;11.50;55.90;;;;;;5014988;28;20456;-54
2022/07/12 01:55:10;;;;;;;1.63;1.43;;;11.50;54.20;;;;;;5005323;28;20464;-52
2022/07/12 01:57:38;;;;;;;1.60;1.50;;;11.40;55.70;;;;;;5018791;28;20550;-55
2022/07/12 02:00:07;;;;;;;2.60;1.73;;;11.40;50.10;;;;;;5008105;23;20496;-53
2022/07/12 02:02:34;;;;;;;2.47;1.47;;;11.40;57.70;;;;;;4992636;28;20606;-53
2022/07/12 02:05:02;;;;;;;3.83;1.80;;;11.30;54.40;;;;;;4991264;28;20911;-55
2022/07/12 02:07:28;;;;;;;2.83;2.07;;;11.40;49.40;;;;;;4988516;28;20475;-54
2022/07/12 02:09:55;;;;;;;2.53;1.77;;;11.30;44.20;;;;;;4989926;28;21490;-54
2022/07/12 02:12:22;;;;;;;2.00;1.80;;;11.40;41.20;;;;;;4993670;28;20523;-54
2022/07/12 02:14:51;;;;;;;3.00;1.60;;;11.40;41.40;;;;;;4990824;28;20499;-53
2022/07/12 02:17:18;;;;;;;3.27;1.63;;;11.30;54.70;;;;;;4986455;28;20476;-54
2022/07/12 02:19:45;;;;;;;11.67;2.10;;;11.30;51.30;;;;;;4991118;28;20480;-53
2022/07/12 02:22:11;;;;;;;2.57;1.70;;;11.20;51.80;;;;;;4989090;28;20464;-54
2022/07/12 02:24:38;;;;;;;2.00;1.57;;;11.20;52.60;;;;;;4998438;28;20468;-54
2022/07/12 02:27:05;;;;;;;3.40;1.70;;;11.10;46.20;;;;;;4996880;28;20468;-55
2022/07/12 02:29:32;;;;;;;2.27;1.50;;;11.20;42.70;;;;;;4990710;28;20485;-54
2022/07/12 02:32:00;;;;;;;3.07;1.90;;;11.10;45.50;;;;;;4993408;28;21011;-55
2022/07/12 02:34:27;;;;;;;1.67;1.57;;;11.10;48.40;;;;;;4993801;28;20538;-54
2022/07/12 02:36:54;;;;;;;1.57;1.47;;;11.10;49.90;;;;;;4990983;28;20452;-54
2022/07/12 02:39:20;;;;;;;1.40;1.30;;;11.10;39.90;;;;;;4988804;28;20866;-53
2022/07/12 02:41:47;;;;;;;1.77;1.60;;;11.00;58.50;;;;;;4991263;28;21259;-53
2022/07/12 02:44:14;;;;;;;1.40;1.30;;;11.00;51.50;;;;;;4991177;28;20507;-54
2022/07/12 02:46:40;;;;;;;1.60;1.50;;;10.90;45.80;;;;;;4993415;28;20473;-55
2022/07/12 02:49:08;;;;;;;1.50;1.40;;;10.90;45.60;;;;;;4994247;28;20534;-53
2022/07/12 02:51:35;;;;;;;1.33;1.23;;;10.80;45.30;;;;;;4990472;28;20465;-55
2022/07/12 02:54:01;;;;;;;3.77;1.77;;;10.80;44.40;;;;;;5000666;28;20503;-54
2022/07/12 02:56:28;;;;;;;2.20;1.80;;;10.80;33.20;;;;;;4992218;28;20910;-54
2022/07/12 02:58:54;;;;;;;1.93;1.43;;;10.80;23.20;;;;;;4984410;28;20558;-54
2022/07/12 03:01:21;;;;;;;1.57;1.40;;;10.80;21.60;;;;;;4992198;28;20515;-54
2022/07/12 03:03:48;;;;;;;1.80;1.70;;;10.80;99.90;;;;;;4999820;28;20872;-54
2022/07/12 03:06:16;;;;;;;3.00;2.07;;;10.80;99.90;;;;;;5009159;28;20545;-52
2022/07/12 03:08:43;;;;;;;2.13;1.93;;;10.80;99.90;;;;;;4991566;28;20476;-53
2022/07/12 03:11:09;;;;;;;3.63;2.37;;;10.80;99.90;;;;;;4996205;28;20545;-54
2022/07/12 03:13:36;;;;;;;2.10;1.50;;;10.80;99.90;;;;;;4992468;28;20531;-54
2022/07/12 03:16:03;;;;;;;2.40;1.73;;;10.90;99.90;;;;;;4999965;28;20463;-54
2022/07/12 03:18:30;;;;;;;1.87;1.77;;;10.90;99.90;;;;;;4995899;28;20538;-55
2022/07/12 03:20:57;;;;;;;2.63;2.10;;;10.90;99.90;;;;;;4996420;28;20459;-54
2022/07/12 03:23:25;;;;;;;6.43;2.17;;;10.90;99.90;;;;;;4993414;28;20878;-54
2022/07/12 03:25:52;;;;;;;1.80;1.73;;;10.90;99.90;;;;;;4998297;28;20456;-54
2022/07/12 03:28:19;;;;;;;2.23;1.80;;;10.90;99.90;;;;;;4992979;28;20548;-54
2022/07/12 03:30:45;;;;;;;2.57;1.90;;;10.90;99.90;;;;;;4996581;28;20489;-54
2022/07/12 03:33:12;;;;;;;2.13;1.63;;;10.90;99.90;;;;;;4992390;28;20477;-54
2022/07/12 03:35:38;;;;;;;2.70;2.17;;;10.90;99.90;;;;;;5000525;28;20534;-53
2022/07/12 03:38:05;;;;;;;2.97;2.13;;;10.90;99.90;;;;;;4994638;28;20472;-53
2022/07/12 03:40:34;;;;;;;2.13;1.90;;;10.90;99.90;;;;;;4997416;28;20875;-54
2022/07/12 03:43:01;;;;;;;1.63;1.53;;;11.00;99.90;;;;;;4993368;28;20958;-53
2022/07/12 03:45:27;;;;;;;2.90;2.00;;;11.00;99.90;;;;;;4989050;28;20531;-53
2022/07/12 03:47:54;;;;;;;2.07;1.70;;;11.00;99.90;;;;;;4992589;28;20530;-54
2022/07/12 03:50:20;;;;;;;2.53;1.83;;;11.10;99.90;;;;;;4992779;28;20542;-52
2022/07/12 03:52:47;;;;;;;2.87;1.80;;;11.10;99.50;;;;;;4992094;28;20460;-53
2022/07/12 03:55:14;;;;;;;1.57;1.47;;;11.10;83.60;;;;;;4992739;28;20958;-54
2022/07/12 03:57:42;;;;;;;2.20;2.00;;;11.10;95.80;;;;;;4992241;28;22420;-54
2022/07/12 04:00:11;;;;;;;1.60;1.50;;;11.20;20.60;;;;;;4992912;28;20483;-54
2022/07/12 04:02:38;;;;;;;2.60;1.67;;;11.20;21.50;;;;;;4996768;28;20460;-53
2022/07/12 04:05:06;;;;;;;2.37;2.10;;;11.20;99.90;;;;;;4996482;28;20514;-54
2022/07/12 04:07:33;;;;;;;3.03;1.77;;;11.20;86.70;;;;;;4991851;28;20858;-55
2022/07/12 04:10:00;;;;;;;1.83;1.73;;;11.30;99.90;;;;;;4991365;28;20857;-55
2022/07/12 04:12:26;;;;;;;1.90;1.77;;;11.30;99.90;;;;;;4990364;28;20519;-56
2022/07/12 04:14:54;;;;;;;1.80;1.40;;;11.40;99.90;;;;;;4997032;28;20460;-54
2022/07/12 04:17:21;;;;;;;4.00;1.90;;;11.40;99.90;;;;;;4994567;28;20465;-54
2022/07/12 04:19:47;;;;;;;1.80;1.57;;;11.50;99.90;;;;;;4992653;28;20484;-54
2022/07/12 04:22:14;;;;;;;1.83;1.73;;;11.50;99.90;;;;;;4991341;28;20993;-55
2022/07/12 04:24:41;;;;;;;5.17;1.60;;;11.50;99.90;;;;;;4985828;28;20904;-54
2022/07/12 04:27:07;;;;;;;2.07;1.90;;;11.70;99.90;;;;;;4993835;28;20468;-54
2022/07/12 04:29:34;;;;;;;3.50;2.00;;;11.80;80.40;;;;;;5001510;28;20476;-54
2022/07/12 04:32:02;;;;;;;2.73;1.83;;;11.90;24.30;;;;;;5002296;28;20546;-55
2022/07/12 04:34:28;;;;;;;4.13;1.80;;;12.00;34.90;;;;;;4993486;28;20471;-53
2022/07/12 04:36:55;;;;;;;4.27;2.53;;;12.10;39.00;;;;;;4992502;28;20511;-55
2022/07/12 04:39:22;;;;;;;6.10;2.00;;;12.10;46.80;;;;;;4992084;28;21003;-54
2022/07/12 04:41:49;;;;;;;2.47;2.20;;;12.30;55.80;;;;;;4990541;28;20467;-54
2022/07/12 04:44:15;;;;;;;3.43;2.50;;;12.30;59.70;;;;;;4992048;28;20475;-54
2022/07/12 04:46:42;;;;;;;9.13;1.90;;;12.50;67.30;;;;;;4988476;28;20880;-54
2022/07/12 04:49:10;;;;;;;2.10;1.90;;;12.50;71.60;;;;;;4987468;28;20558;-54
2022/07/12 04:51:37;;;;;;;1.63;1.53;;;12.60;80.60;;;;;;5005847;28;20519;-54
2022/07/12 04:54:03;;;;;;;3.27;1.80;;;12.70;84.60;;;;;;4991886;28;20515;-54
2022/07/12 04:56:30;;;;;;;3.00;2.03;;;12.80;97.20;;;;;;4990434;28;20469;-54
2022/07/12 04:58:57;;;;;;;3.73;1.93;;;12.80;99.90;;;;;;4992367;28;20547;-54
2022/07/12 05:01:23;;;;;;;3.90;1.67;;;12.90;99.90;;;;;;4988430;28;20461;-54
2022/07/12 05:03:50;;;;;;;3.43;1.80;;;13.00;99.90;;;;;;4992454;28;20441;-56
2022/07/12 05:06:18;;;;;;;5.07;2.10;;;13.10;99.90;;;;;;4996901;28;20464;-54
2022/07/12 05:08:44;;;;;;;3.87;1.83;;;13.20;99.90;;;;;;4992603;28;20468;-54
2022/07/12 05:11:11;;;;;;;14.53;1.90;;;13.30;99.90;;;;;;4995697;28;20881;-54
2022/07/12 05:13:38;;;;;;;4.57;1.83;;;13.40;99.90;;;;;;4988849;28;20468;-54
2022/07/12 05:16:07;;;;;;;3.00;2.03;;;13.50;99.90;;;;;;4994253;28;20840;-54
2022/07/12 05:18:34;;;;;;;5.40;1.90;;;13.50;99.90;;;;;;4997120;28;20484;-54
2022/07/12 05:21:00;;;;;;;4.77;1.70;;;13.70;99.90;;;;;;4984034;28;20457;-54
2022/07/12 05:23:28;;;;;;;5.00;1.70;;;13.70;99.90;;;;;;4989293;28;20468;-54
2022/07/12 05:25:55;;;;;;;8.40;1.60;;;13.80;99.90;;;;;;4990510;28;20539;-54
2022/07/12 05:28:21;;;;;;;5.73;1.53;;;14.00;99.90;;;;;;4987173;28;20484;-54
2022/07/12 05:30:48;;;;;;;3.60;2.30;;;14.10;99.90;;;;;;4993516;28;20483;-54
2022/07/12 05:33:15;;;;;;;4.27;2.00;;;14.20;99.90;;;;;;4992505;28;20514;-54
2022/07/12 05:35:41;;;;;;;6.73;1.70;;;14.20;99.90;;;;;;4993543;28;20522;-53
2022/07/12 05:38:08;;;;;;;10.90;2.00;;;14.30;99.90;;;;;;4991084;28;20461;-55
2022/07/12 05:40:36;;;;;;;2.20;1.90;;;14.40;99.90;;;;;;4990291;28;20904;-53
2022/07/12 05:43:02;;;;;;;9.03;1.83;;;14.50;99.90;;;;;;4991073;28;20523;-55
2022/07/12 05:45:29;;;;;;;4.90;1.53;;;14.50;99.90;;;;;;4994455;28;20469;-54
2022/07/12 05:47:55;;;;;;;1.43;1.33;;;14.70;99.90;;;;;;4991981;28;20464;-54
2022/07/12 05:50:22;;;;;;;6.83;1.50;;;14.70;99.90;;;;;;4991411;28;20527;-54
2022/07/12 05:55:33;;;;;;;1.90;1.10;;;14.90;99.90;;;;;;4991860;28;20459;-53
2022/07/12 05:58:02;;;;;;;9.67;1.57;;;15.00;99.90;;;;;;4987985;28;20946;-55
2022/07/12 06:00:28;;;;;;;7.30;1.70;;;15.10;99.90;;;;;;4989601;28;20472;-54
2022/07/12 06:02:55;;;;;;;2.00;1.47;;;15.30;99.90;;;;;;4993615;28;20491;-54
2022/07/12 06:05:22;;;;;;;1.47;1.13;;;15.40;99.90;;;;;;4988430;28;20939;-54
2022/07/12 06:07:48;;;;;;;4.27;1.93;;;15.50;99.90;;;;;;5008229;28;20468;-53
2022/07/12 06:10:15;;;;;;;3.13;1.80;;;15.50;99.90;;;;;;4992009;28;20523;-53
2022/07/12 06:12:42;;;;;;;5.97;1.70;;;15.60;99.90;;;;;;5008648;28;20566;-54
2022/07/12 06:15:10;;;;;;;1.70;1.60;;;15.70;99.90;;;;;;5005778;28;20491;-53
2022/07/12 06:17:38;;;;;;;3.03;1.50;;;15.80;99.90;;;;;;4995010;28;20459;-53
2022/07/12 06:20:05;;;;;;;4.93;1.40;;;15.90;99.90;;;;;;4993879;28;20552;-54
2022/07/12 06:22:32;;;;;;;4.00;1.47;;;16.00;21.20;;;;;;4992902;28;20495;-54
2022/07/12 06:24:58;;;;;;;5.93;1.47;;;16.00;20.60;;;;;;4992462;28;20530;-54
2022/07/12 06:27:25;;;;;;;4.40;1.60;;;16.10;22.40;;;;;;4994216;28;20464;-54
2022/07/12 06:29:52;;;;;;;11.70;1.63;;;16.20;26.30;;;;;;4988284;28;20484;-54
2022/07/12 06:32:20;;;;;;;4.30;1.53;;;16.30;24.00;;;;;;4990047;28;20554;-54
2022/07/12 06:34:46;;;;;;;2.43;1.83;;;16.30;20.70;;;;;;4990309;28;20464;-54
2022/07/12 06:37:14;;;;;;;9.57;2.20;;;16.40;21.90;;;;;;4995021;28;20563;-53
2022/07/12 06:39:41;;;;;;;7.30;1.67;;;16.50;22.40;;;;;;4992589;28;20484;-56
2022/07/12 06:42:08;;;;;;;9.60;3.53;;;16.60;28.30;;;;;;4991124;28;20465;-53
2022/07/12 06:44:35;;;;;;;10.17;1.50;;;16.70;38.40;;;;;;4984768;28;20547;-54
2022/07/12 06:47:02;;;;;;;2.40;1.53;;;16.80;45.80;;;;;;4991920;28;20965;-54
2022/07/12 06:49:30;;;;;;;5.97;1.57;;;16.90;51.20;;;;;;4989922;28;20480;-54
2022/07/12 06:51:56;;;;;;;2.00;1.40;;;17.00;47.10;;;;;;4994135;28;20488;-54
2022/07/12 06:54:23;;;;;;;2.77;1.60;;;17.10;49.20;;;;;;4994066;28;20464;-54
2022/07/12 06:56:50;;;;;;;6.03;1.40;;;17.30;58.00;;;;;;4991915;28;21038;-54
2022/07/12 06:59:16;;;;;;;3.60;1.97;;;17.30;67.60;;;;;;4996833;28;21082;-54
2022/07/12 07:01:43;;;;;;;4.30;1.30;;;17.50;73.60;;;;;;5001031;28;20457;-54
2022/07/12 07:04:10;;;;;;;3.93;1.30;;;17.60;74.20;;;;;;4994439;28;21039;-53
2022/07/12 07:06:38;;;;;;;4.97;1.60;;;17.70;78.50;;;;;;4993570;28;20463;-53
2022/07/12 07:09:07;;;;;;;6.20;1.40;;;17.80;86.40;;;;;;4995369;28;20819;-55
2022/07/12 07:11:34;;;;;;;3.13;1.20;;;17.90;86.00;;;;;;4993464;28;20572;-53
2022/07/12 07:14:01;;;;;;;7.10;1.37;;;18.00;95.20;;;;;;4995326;28;20465;-54
2022/07/12 07:16:27;;;;;;;5.50;1.47;;;18.10;99.90;;;;;;4989475;28;20982;-53
2022/07/12 07:18:54;;;;;;;2.77;1.20;;;18.10;99.90;;;;;;4994694;28;20889;-55
2022/07/12 07:21:20;;;;;;;2.10;1.33;;;18.20;99.90;;;;;;4995058;28;20461;-54
2022/07/12 07:23:48;;;;;;;1.63;1.07;;;18.30;99.90;;;;;;4993562;28;20465;-54
2022/07/12 07:26:15;;;;;;;3.63;1.77;;;18.50;99.90;;;;;;4992519;28;20465;-54
2022/07/12 07:31:22;;;;;;;2.23;1.33;;;18.70;99.90;;;;;;4988252;28;20542;-54
2022/07/12 07:33:49;;;;;;;1.33;1.23;;;18.80;99.90;;;;;;4993470;28;20449;-54
2022/07/12 07:36:15;;;;;;;3.83;1.57;;;18.90;99.90;;;;;;4991594;28;20472;-54
2022/07/12 07:38:42;;;;;;;1.87;1.40;;;19.00;99.90;;;;;;4993312;28;20531;-54
2022/07/12 07:41:10;;;;;;;3.90;1.30;;;19.20;99.90;;;;;;4981608;28;20519;-54
2022/07/12 07:43:36;;;;;;;3.73;1.27;;;19.30;99.90;;;;;;4994944;28;20464;-53
2022/07/12 07:46:03;;;;;;;2.70;1.57;;;19.30;99.90;;;;;;4993216;28;20464;-53
2022/07/12 07:48:30;;;;;;;1.93;0.90;;;19.40;99.90;;;;;;4997820;28;20484;-53
2022/07/12 07:50:56;;;;;;;1.10;1.10;;;19.40;99.90;;;;;;4994466;28;20464;-54
2022/07/12 07:53:24;;;;;;;2.00;1.30;;;19.60;99.90;;;;;;4992368;28;20460;-53
2022/07/12 07:55:51;;;;;;;4.80;1.30;;;19.60;99.90;;;;;;4994607;28;20495;-53
2022/07/12 07:58:20;;;;;;;4.40;1.30;;;19.70;99.90;;;;;;4994046;28;20475;-54
2022/07/12 08:00:47;;;;;;;5.60;0.90;;;19.80;99.90;;;;;;5015542;23;21055;-52
2022/07/12 08:03:14;;;;;;;5.07;1.10;;;19.90;99.90;;;;;;5020181;28;20474;-53
2022/07/12 08:05:40;;;;;;;2.50;1.27;;;20.00;99.90;;;;;;5015264;28;21074;-53
2022/07/12 08:08:07;;;;;;;1.43;1.20;;;20.10;99.90;;;;;;5015784;28;20458;-52
2022/07/12 08:10:34;;;;;;;2.47;1.60;;;20.20;99.90;;;;;;5016218;28;20559;-52
2022/07/12 08:13:00;;;;;;;3.27;1.20;;;20.30;99.90;;;;;;5013403;28;20941;-53
2022/07/12 08:15:28;;;;;;;3.37;1.30;;;20.40;99.90;;;;;;5011558;28;20485;-52
2022/07/12 08:17:55;;;;;;;3.57;1.23;;;20.40;99.90;;;;;;5012512;28;21015;-51
2022/07/12 08:20:23;;;;;;;2.93;0.90;;;20.50;99.90;;;;;;5010172;28;20555;-51
2022/07/12 08:22:49;;;;;;;7.40;1.43;;;20.70;99.90;;;;;;5009121;28;20467;-52
2022/07/12 08:25:17;;;;;;;3.93;1.37;;;20.80;99.90;;;;;;5010280;28;20472;-51
2022/07/12 08:27:43;;;;;;;2.10;1.50;;;20.80;99.90;;;;;;5014443;28;20472;-52
2022/07/12 08:30:11;;;;;;;3.33;1.07;;;20.90;99.90;;;;;;5007126;28;20530;-52
2022/07/12 08:32:44;;;;;;;1.73;1.33;;;21.00;99.90;;;;;;5009243;28;21115;-51
2022/07/12 08:35:11;;;;;;;1.40;1.30;;;21.10;99.90;;;;;;5015388;28;20451;-52
2022/07/12 08:37:37;;;;;;;4.77;1.30;;;21.20;99.90;;;;;;5007274;28;20461;-52
2022/07/12 08:40:05;;;;;;;15.67;2.07;;;21.30;99.90;;;;;;5009921;28;20491;-53
2022/07/12 08:42:32;;;;;;;3.20;1.20;;;21.30;99.90;;;;;;5007171;28;20529;-52
2022/07/12 08:44:59;;;;;;;1.53;0.80;;;21.40;99.90;;;;;;5006385;28;20448;-52
2022/07/12 08:47:26;;;;;;;1.50;1.27;;;21.50;99.90;;;;;;5011142;28;20468;-52
2022/07/12 08:50:17;;;;;;;4.07;0.97;;;21.50;99.90;;;;;;5008816;28;20522;-53
2022/07/12 08:52:45;;;;;;;3.17;0.93;;;21.50;99.90;;;;;;5004904;28;21004;-52
2022/07/12 08:55:20;;;;;;;2.93;1.30;;;21.60;99.90;;;;;;5008041;28;20835;-52
2022/07/12 08:57:47;;;;;;;1.30;0.93;;;21.70;99.90;;;;;;5008637;28;21026;-52
2022/07/12 09:00:15;;;;;;;10.40;1.30;;;21.80;99.90;;;;;;5009683;28;20491;-52
2022/07/12 09:02:46;;;;;;;4.80;0.97;;;21.90;99.90;;;;;;5011476;28;20542;-52
2022/07/12 09:05:14;;;;;;;2.23;0.80;;;22.00;99.90;;;;;;5017144;28;20461;-52
2022/07/12 09:07:41;;;;;;;2.40;1.20;;;22.10;99.90;;;;;;5015395;28;20526;-53
2022/07/12 09:10:09;;;;;;;1.93;1.13;;;22.30;99.90;;;;;;5006885;28;20483;-52
2022/07/12 09:12:37;;;;;;;1.40;1.00;;;22.40;99.90;;;;;;5006853;28;20557;-52
2022/07/12 09:15:16;;;;;;;1.13;0.90;;;22.50;1.40;;;;;;5001805;28;20453;-52
2022/07/12 09:17:54;;;;;;;2.10;1.00;;;22.50;99.90;;;;;;5004966;28;20445;-53
2022/07/12 09:20:24;;;;;;;2.63;0.60;;;22.60;99.90;;;;;;5006148;28;20479;-52
2022/07/12 09:22:53;;;;;;;0.87;0.77;;;22.60;99.90;;;;;;5011198;28;20466;-52
2022/07/12 09:25:20;;;;;;;1.20;0.90;;;22.80;99.90;;;;;;5007123;28;20487;-54
2022/07/12 09:27:55;;;;;;;2.40;0.90;;;22.90;99.90;;;;;;5012101;28;20447;-53
2022/07/12 09:30:23;;;;;;;13.53;1.30;;;23.00;99.90;;;;;;5006054;28;20518;-53
2022/07/12 09:38:28;;;;;;;1.67;0.93;;;23.00;99.90;;;;;;5009971;28;20510;-52
2022/07/12 09:40:56;;;;;;;2.53;0.77;;;23.10;99.90;;;;;;5007715;28;20570;-52
2022/07/12 09:43:23;;;;;;;1.20;1.10;;;23.10;99.90;;;;;;5011701;28;20460;-53
2022/07/12 09:45:50;;;;;;;1.27;0.50;;;23.10;99.90;;;;;;5010402;28;20471;-52
2022/07/12 09:48:19;;;;;;;3.93;1.10;;;23.20;99.90;;;;;;5010782;28;20456;-52
2022/07/12 09:50:49;;;;;;;2.27;1.10;;;23.00;99.90;;;;;;5005134;28;20463;-52
2022/07/12 09:53:22;;;;;;;1.60;0.90;;;22.80;99.90;;;;;;5007430;28;20888;-52
2022/07/12 09:55:51;;;;;;;3.63;1.03;;;22.80;99.90;;;;;;5007857;28;20463;-52
2022/07/12 09:58:24;;;;;;;4.67;1.20;;;23.00;99.90;;;;;;5009738;28;20471;-52
2022/07/12 10:00:53;;;;;;;1.33;0.80;;;23.20;99.90;;;;;;5004177;28;20538;-52
2022/07/12 10:03:22;;;;;;;6.47;1.20;;;23.20;99.90;;;;;;5010260;28;20485;-52
2022/07/12 10:05:51;;;;;;;2.40;1.10;;;23.00;99.90;;;;;;5003850;28;20977;-52
2022/07/12 10:08:19;;;;;;;9.53;1.23;;;23.00;99.90;;;;;;5009655;28;20590;-52
2022/07/12 10:10:47;;;;;;;2.80;0.83;;;23.10;99.90;;;;;;5009294;28;21014;-52
2022/07/12 10:13:14;;;;;;;8.73;0.97;;;23.30;99.90;;;;;;5006724;28;20495;-53
2022/07/12 10:15:43;;;;;;;0.83;0.70;;;23.60;99.90;;;;;;5011929;28;20518;-52
2022/07/12 10:18:16;;;;;;;1.20;1.10;;;23.70;99.90;;;;;;5012255;28;20460;-52
2022/07/12 10:20:43;;;;;;;4.87;1.00;;;23.50;99.90;;;;;;5015552;28;20514;-53
2022/07/12 10:23:34;;;;;;;1.40;0.90;;;23.30;99.90;;;;;;5010808;28;21024;-52
2022/07/12 10:26:01;;;;;;;6.13;1.10;;;23.20;99.90;;;;;;5002408;28;20475;-52
2022/07/12 10:28:56;;;;;;;3.73;0.97;;;23.20;99.90;;;;;;5015576;28;20455;-52
2022/07/12 10:31:24;;;;;;;1.77;0.90;;;23.40;99.90;;;;;;4970641;28;20468;-53
2022/07/12 10:34:08;;;;;;;0.67;0.67;;;23.60;99.90;;;;;;5012013;28;20550;-52
2022/07/12 10:37:07;;;;;;;3.30;1.20;;;23.80;99.90;;;;;;5012140;28;20525;-52
2022/07/12 10:39:36;;;;;;;1.00;1.00;;;23.50;99.90;;;;;;5009714;28;20538;-53
2022/07/12 10:42:17;;;;;;;5.40;1.47;;;23.50;99.90;;;;;;5010039;28;21493;-52
2022/07/12 10:44:46;;;;;;;2.13;0.80;;;23.60;99.90;;;;;;5008284;28;20507;-52
2022/07/12 10:47:15;;;;;;;0.73;0.73;;;23.80;99.90;;;;;;5010468;28;20967;-53
2022/07/12 10:50:00;;;;;;;0.70;0.60;;;24.00;99.90;;;;;;5018183;28;20478;-52
2022/07/12 10:52:27;;;;;;;1.43;1.07;;;24.20;99.90;;;;;;5009304;28;20550;-52
2022/07/12 10:55:18;;;;;;;2.53;1.07;;;24.40;99.90;;;;;;5009165;28;20463;-54
2022/07/12 10:57:49;;;;;;;1.80;0.80;;;24.50;99.90;;;;;;5014169;28;20546;-54
2022/07/12 11:00:16;;;;;;;0.83;0.70;;;24.30;99.90;;;;;;5008576;28;20566;-54
2022/07/12 11:02:43;;;;;;;2.67;0.90;;;24.40;99.90;;;;;;5011818;28;20493;-54
2022/07/12 11:05:10;;;;;;;0.97;0.97;;;24.50;99.90;;;;;;5010670;28;20529;-54
2022/07/12 11:07:37;;;;;;;1.53;1.10;;;24.60;99.90;;;;;;5011374;28;20486;-54
2022/07/12 11:10:05;;;;;;;1.70;0.97;;;24.80;99.90;;;;;;5013200;28;20993;-54
2022/07/12 11:12:33;;;;;;;0.93;0.83;;;24.80;99.90;;;;;;5016857;28;20487;-55
2022/07/12 11:15:00;;;;;;;1.77;0.90;;;24.40;99.90;;;;;;5011655;28;20459;-54
2022/07/12 11:17:28;;;;;;;3.60;1.10;;;24.20;99.90;;;;;;5011326;28;20468;-54
2022/07/12 11:20:06;;;;;;;4.00;1.20;;;24.00;99.90;;;;;;5001676;28;20499;-54
2022/07/12 11:22:33;;;;;;;1.10;0.80;;;24.10;99.90;;;;;;5013511;28;20471;-54
2022/07/12 11:25:00;;;;;;;0.73;0.73;;;24.30;99.90;;;;;;5004686;28;20463;-54
2022/07/12 11:27:27;;;;;;;0.90;0.90;;;24.40;99.90;;;;;;5014637;28;20463;-53
2022/07/12 11:29:58;;;;;;;4.30;1.20;;;24.30;99.90;;;;;;5017671;28;20885;-54
2022/07/12 11:32:35;;;;;;;4.47;1.17;;;24.10;99.90;;;;;;5023456;28;20583;-53
2022/07/12 11:35:02;;;;;;;4.97;0.93;;;24.20;99.90;;;;;;5014275;28;20470;-53
2022/07/12 11:37:29;;;;;;;3.30;1.23;;;24.20;99.90;;;;;;5006698;28;20879;-54
2022/07/12 11:39:55;;;;;;;1.03;0.90;;;24.30;99.90;;;;;;5013117;28;20541;-54
2022/07/12 11:42:22;;;;;;;2.50;1.20;;;24.20;99.90;;;;;;5013333;28;20440;-53
2022/07/12 11:44:50;;;;;;;2.53;1.40;;;24.20;99.90;;;;;;5015887;28;20464;-54
2022/07/12 11:47:20;;;;;;;0.57;0.57;;;24.20;99.90;;;;;;5004490;28;20965;-53
2022/07/12 11:49:47;;;;;;;3.27;1.03;;;24.10;99.90;;;;;;5012417;28;20475;-54
2022/07/12 11:52:14;;;;;;;1.83;0.90;;;24.10;99.90;;;;;;5012347;28;21027;-54
2022/07/12 11:54:41;;;;;;;1.63;0.70;;;24.00;99.90;;;;;;5013249;28;20550;-54
2022/07/12 11:57:09;;;;;;;2.80;1.07;;;23.80;99.90;;;;;;5010655;28;20510;-54
2022/07/12 11:59:36;;;;;;;0.90;0.70;;;24.00;99.90;;;;;;5013872;28;20491;-54
2022/07/12 12:02:04;;;;;;;2.50;1.00;;;24.10;99.90;;;;;;5024423;28;20479;-53
2022/07/12 12:04:32;;;;;;;2.00;0.70;;;24.40;99.90;;;;;;5009888;28;20894;-54
2022/07/12 12:06:59;;;;;;;1.23;0.63;;;24.70;99.90;;;;;;5007001;28;20903;-54
2022/07/12 12:09:25;;;;;;;6.70;1.17;;;24.70;99.90;;;;;;5011973;28;20479;-55
2022/07/12 12:11:52;;;;;;;1.27;1.17;;;24.70;99.90;;;;;;5010783;28;21593;-54
2022/07/12 12:14:19;;;;;;;3.90;0.80;;;24.50;99.90;;;;;;5014420;28;20491;-54
2022/07/12 12:16:46;;;;;;;1.77;0.80;;;24.30;99.90;;;;;;5013646;28;20470;-54
2022/07/12 12:19:13;;;;;;;3.93;0.90;;;24.40;99.90;;;;;;5013457;28;20831;-53
2022/07/12 12:21:41;;;;;;;1.83;1.20;;;24.60;99.90;;;;;;5011804;28;20542;-54
2022/07/12 12:24:11;;;;;;;2.53;0.87;;;24.80;99.90;;;;;;5013348;28;20502;-53
2022/07/12 12:26:38;;;;;;;1.00;0.90;;;24.90;99.90;;;;;;5010074;28;20551;-54
2022/07/12 12:29:05;;;;;;;1.20;0.80;;;25.20;99.90;;;;;;5012013;28;20464;-54
2022/07/12 12:31:31;;;;;;;2.47;0.80;;;25.40;99.90;;;;;;5020938;28;20868;-54
2022/07/12 12:33:58;;;;;;;2.93;1.00;;;25.40;99.90;;;;;;5011403;28;20554;-54
2022/07/12 12:36:26;;;;;;;2.50;0.80;;;25.40;99.90;;;;;;5010634;28;20546;-54
2022/07/12 12:38:56;;;;;;;1.13;0.87;;;25.50;99.90;;;;;;5012589;28;20723;-54
2022/07/12 12:41:24;;;;;;;0.83;0.70;;;25.60;99.90;;;;;;5008538;28;20464;-55
2022/07/12 12:43:59;;;;;;;0.90;0.90;;;25.70;99.90;;;;;;5013155;28;20443;-54
2022/07/12 12:46:47;;;;;;;3.83;0.93;;;25.60;99.90;;;;;;5007409;28;20485;-54
2022/07/12 12:49:13;;;;;;;1.33;0.70;;;25.50;99.90;;;;;;5008292;28;20489;-54
2022/07/12 12:51:54;;;;;;;1.13;0.70;;;25.50;99.90;;;;;;5014076;28;20467;-54
2022/07/12 12:54:37;;;;;;;8.00;1.00;;;25.50;99.90;;;;;;5012743;28;20490;-53
2022/07/12 12:57:05;;;;;;;3.03;1.20;;;25.50;99.90;;;;;;5009414;28;20452;-54
2022/07/12 12:59:32;;;;;;;0.67;0.40;;;25.40;99.90;;;;;;5009477;28;20538;-53
2022/07/12 13:01:59;;;;;;;2.50;1.07;;;25.60;99.90;;;;;;5015626;28;20456;-54